Time;durP1;ratioP1;P1;durP2;ratioP2;P2;SDS_P1;SDS_P2;PMS_P1;PMS_P2;Temp;Humidity;BMP_temperature;BMP_pressure;BME280_temperature;BME280_humidity;BME280_pressure;Samples;Min_cycle;Max_cycle;Signal;HPM_P1;HPM_P2
2021/11/17 02:28:11;;;;;;;68.93;26.37;;;5.50;99.90;;;;;;5033752;28;20057;-65
2021/11/17 02:31:02;;;;;;;67.82;23.40;;;5.50;99.90;;;;;;5019641;28;20169;-65
2021/11/17 02:33:41;;;;;;;70.90;25.33;;;5.60;99.90;;;;;;5037004;28;20062;-65
2021/11/17 02:36:29;;;;;;;64.70;26.33;;;5.60;99.90;;;;;;5021727;28;20132;-65
2021/11/17 02:39:12;;;;;;;69.57;25.00;;;5.60;99.90;;;;;;4999690;28;20286;-65
2021/11/17 02:41:53;;;;;;;69.30;24.85;;;5.60;99.90;;;;;;5022534;28;20148;-65
2021/11/17 02:44:25;;;;;;;;;;;5.60;99.90;;;;;;5027585;27;20191;-65
2021/11/17 02:47:09;;;;;;;69.72;25.67;;;5.60;99.90;;;;;;5112335;28;19923;-65
2021/11/17 02:49:50;;;;;;;71.00;25.85;;;5.60;99.90;;;;;;5112682;27;20173;-65
2021/11/17 02:52:40;;;;;;;67.65;25.27;;;5.50;99.90;;;;;;5121579;27;20054;-65
2021/11/17 02:55:37;;;;;;;62.75;22.88;;;5.60;99.90;;;;;;5127800;27;20101;-65
2021/11/17 02:58:27;;;;;;;63.40;24.17;;;5.60;99.90;;;;;;5109888;28;20036;-65
2021/11/17 03:01:30;;;;;;;63.95;22.70;;;5.60;99.90;;;;;;5140575;27;20103;-65
2021/11/17 03:04:18;;;;;;;68.88;25.88;;;5.70;99.90;;;;;;5117423;27;20058;-65
2021/11/17 03:06:59;;;;;;;65.40;23.27;;;5.60;99.90;;;;;;5123530;27;20055;-65
2021/11/17 03:09:48;;;;;;;69.40;27.35;;;5.60;99.90;;;;;;5121197;27;20057;-64
2021/11/17 03:12:44;;;;;;;73.00;25.20;;;5.70;99.90;;;;;;5146309;27;20039;-65
2021/11/17 03:15:26;;;;;;;68.63;23.52;;;5.70;99.90;;;;;;5115575;28;20054;-65
2021/11/17 03:18:19;;;;;;;67.47;24.35;;;5.60;99.90;;;;;;5119178;27;20074;-65
2021/11/17 03:21:00;;;;;;;68.78;25.95;;;5.60;99.90;;;;;;5102081;28;20047;-65
2021/11/17 03:23:28;;;;;;;66.50;25.85;;;5.60;99.90;;;;;;5117903;27;20047;-65
2021/11/17 03:26:17;;;;;;;67.57;24.27;;;5.60;99.90;;;;;;5120721;27;20079;-65
2021/11/17 03:29:08;;;;;;;69.95;24.77;;;5.70;99.90;;;;;;5123343;27;20035;-65
2021/11/17 03:32:02;;;;;;;68.70;23.30;;;5.70;99.90;;;;;;5127829;27;20047;-65
2021/11/17 03:34:39;;;;;;;70.63;24.08;;;5.60;99.90;;;;;;5114380;28;20043;-65
2021/11/17 03:37:50;;;;;;;59.45;21.73;;;5.90;99.90;;;;;;5144597;27;20091;-65
2021/11/17 03:40:32;;;;;;;59.10;22.40;;;5.90;99.90;;;;;;5141156;27;20058;-65
2021/11/17 03:43:16;;;;;;;67.72;24.42;;;5.90;99.90;;;;;;5102252;27;20058;-65
2021/11/17 03:45:44;;;;;;;67.20;24.88;;;6.00;99.90;;;;;;5118022;28;20043;-65
2021/11/17 03:48:16;;;;;;;66.40;24.50;;;5.90;99.90;;;;;;5115329;27;20043;-65
2021/11/17 03:50:55;;;;;;;68.28;22.98;;;5.90;99.90;;;;;;5145780;27;20107;-65
2021/11/17 03:53:59;;;;;;;66.82;24.05;;;6.00;99.90;;;;;;5137662;27;20038;-65
2021/11/17 03:56:34;;;;;;;70.82;26.65;;;5.90;99.90;;;;;;5121987;28;20079;-65
2021/11/17 03:59:27;;;;;;;74.13;24.73;;;5.80;99.90;;;;;;5119082;27;20054;-65
2021/11/17 04:01:55;;;;;;;67.22;24.65;;;5.90;99.90;;;;;;5134720;27;20127;-65
2021/11/17 04:04:46;;;;;;;71.40;25.20;;;6.00;99.90;;;;;;5145791;27;20069;-65
2021/11/17 04:07:39;;;;;;;68.43;23.80;;;6.00;99.90;;;;;;5130093;27;20052;-65
2021/11/17 04:10:14;;;;;;;64.00;22.58;;;6.00;99.90;;;;;;5118325;28;20238;-65
2021/11/17 04:13:17;;;;;;;64.85;24.17;;;6.10;99.90;;;;;;5143357;27;20073;-65
2021/11/17 04:15:51;;;;;;;64.07;24.85;;;6.00;99.90;;;;;;5137578;27;20035;-65
2021/11/17 04:18:23;;;;;;;64.43;26.20;;;6.10;99.90;;;;;;5138095;27;20046;-65
2021/11/17 04:21:01;;;;;;;68.15;24.95;;;6.00;99.90;;;;;;5108152;28;20058;-65
2021/11/17 04:24:00;;;;;;;67.75;24.33;;;6.20;99.90;;;;;;5145042;27;20062;-65
2021/11/17 04:26:36;;;;;;;67.95;26.40;;;6.20;99.90;;;;;;5113960;27;20051;-65
2021/11/17 04:29:27;;;;;;;66.60;25.23;;;6.20;99.90;;;;;;5138166;27;20063;-65
2021/11/17 04:32:24;;;;;;;72.10;27.02;;;6.20;99.90;;;;;;5145466;27;20039;-64
2021/11/17 04:35:22;;;;;;;74.78;26.45;;;6.20;99.90;;;;;;5135414;27;20384;-65
2021/11/17 04:38:00;;;;;;;72.53;24.83;;;6.20;99.90;;;;;;5121320;28;20450;-65
2021/11/17 04:40:46;;;;;;;73.80;27.40;;;6.30;99.90;;;;;;5126683;28;20107;-65
2021/11/17 04:43:49;;;;;;;74.85;28.35;;;6.30;99.90;;;;;;5126388;28;20043;-65
2021/11/17 04:46:51;;;;;;;75.88;26.23;;;6.20;99.90;;;;;;5133626;28;20422;-66
2021/11/17 04:49:53;;;;;;;73.47;26.73;;;6.20;99.90;;;;;;5059599;28;20045;-65
2021/11/17 04:52:47;;;;;;;76.78;29.23;;;6.30;99.90;;;;;;5061157;28;20051;-65
2021/11/17 04:55:57;;;;;;;72.90;26.80;;;6.30;99.90;;;;;;5044571;28;20047;-65
2021/11/17 04:58:34;;;;;;;78.95;28.40;;;6.30;99.90;;;;;;5042470;28;20083;-65
2021/11/17 05:01:09;;;;;;;78.22;28.45;;;6.40;99.90;;;;;;5044971;28;20057;-65
2021/11/17 05:03:52;;;;;;;76.53;28.40;;;6.30;99.90;;;;;;5044204;28;20064;-65
2021/11/17 05:06:21;;;;;;;76.22;26.00;;;6.30;99.90;;;;;;5061264;28;20053;-64
2021/11/17 05:08:52;;;;;;;82.75;30.25;;;6.40;99.90;;;;;;5061212;28;20080;-65
2021/11/17 05:11:30;;;;;;;83.65;28.58;;;6.40;99.90;;;;;;5045754;28;20561;-65
2021/11/17 05:14:37;;;;;;;77.38;27.30;;;6.30;99.90;;;;;;5062415;28;20036;-65
2021/11/17 05:17:43;;;;;;;77.53;28.98;;;6.30;99.90;;;;;;5060657;28;20053;-65
2021/11/17 05:20:48;;;;;;;82.28;30.02;;;6.40;99.90;;;;;;5060742;28;20056;-65
2021/11/17 05:23:14;;;;;;;75.18;26.55;;;6.40;99.90;;;;;;5096537;28;20053;-65
2021/11/17 05:25:57;;;;;;;70.68;27.15;;;6.30;99.90;;;;;;5144212;27;20125;-65
2021/11/17 05:28:22;;;;;;;80.88;29.73;;;6.50;99.90;;;;;;5115666;27;20047;-65
2021/11/17 05:31:12;;;;;;;71.70;27.63;;;6.40;99.90;;;;;;5145073;27;20095;-65
2021/11/17 05:33:47;;;;;;;72.20;28.35;;;6.50;99.90;;;;;;5144714;27;20062;-65
2021/11/17 05:36:18;;;;;;;70.82;28.75;;;6.60;99.90;;;;;;5127136;27;20043;-65
2021/11/17 05:39:10;;;;;;;77.93;27.63;;;6.60;99.90;;;;;;5108783;28;20058;-65
2021/11/17 05:41:48;;;;;;;70.18;27.00;;;6.60;99.90;;;;;;5132960;27;20043;-65
2021/11/17 05:44:14;;;;;;;72.25;28.08;;;6.60;99.90;;;;;;5147835;27;20039;-65
2021/11/17 05:46:46;;;;;;;72.90;27.42;;;6.50;99.90;;;;;;5137779;27;20115;-65
2021/11/17 05:49:30;;;;;;;83.50;30.40;;;6.50;99.90;;;;;;5118092;27;20048;-65
2021/11/17 05:51:59;;;;;;;73.68;27.35;;;6.50;99.90;;;;;;5142419;27;20047;-65
2021/11/17 05:54:49;;;;;;;77.13;29.73;;;6.60;99.90;;;;;;5145244;27;20039;-65
2021/11/17 05:57:27;;;;;;;;;;;6.60;99.90;;;;;;5110256;27;20062;-65
2021/11/17 05:59:56;;;;;;;70.47;26.08;;;6.50;99.90;;;;;;5125683;27;19930;-65
2021/11/17 06:02:39;;;;;;;80.80;29.77;;;6.50;99.90;;;;;;5147806;27;20039;-66
2021/11/17 06:05:05;;;;;;;78.03;29.85;;;6.70;99.90;;;;;;5104875;27;20093;-65
2021/11/17 06:07:30;;;;;;;73.88;29.60;;;6.60;99.90;;;;;;5121189;27;20047;-65
2021/11/17 06:10:08;;;;;;;70.28;29.15;;;6.60;99.90;;;;;;5148471;27;20056;-63
2021/11/17 06:12:34;;;;;;;85.65;30.63;;;6.60;99.90;;;;;;5135630;27;20039;-65
2021/11/17 06:15:01;;;;;;;74.43;30.52;;;6.60;99.90;;;;;;5131163;27;20046;-65
2021/11/17 06:17:27;;;;;;;80.38;28.38;;;6.60;99.90;;;;;;5120628;27;20040;-64
2021/11/17 06:19:56;;;;;;;79.85;29.80;;;6.70;99.90;;;;;;5090054;28;20040;-65
2021/11/17 06:22:26;;;;;;;77.70;30.05;;;6.70;99.90;;;;;;5121377;27;20279;-65
2021/11/17 06:24:55;;;;;;;88.68;34.42;;;6.70;99.90;;;;;;5121178;27;20417;-65
2021/11/17 06:27:25;;;;;;;87.40;33.67;;;6.70;99.90;;;;;;5118236;27;20048;-65
2021/11/17 06:29:52;;;;;;;;;;;6.70;99.90;;;;;;5124387;27;20104;-65
2021/11/17 06:32:18;;;;;;;89.40;34.08;;;6.60;99.90;;;;;;5135978;27;19919;-65
2021/11/17 06:34:47;;;;;;;90.20;32.70;;;6.70;99.90;;;;;;5104950;27;20075;-65
2021/11/17 06:37:15;;;;;;;81.72;32.75;;;6.70;99.90;;;;;;5114845;27;20326;-65
2021/11/17 06:39:47;;;;;;;86.63;32.92;;;6.60;99.90;;;;;;5119863;27;20510;-65
2021/11/17 06:42:23;;;;;;;96.15;33.55;;;6.70;99.90;;;;;;5116510;27;20450;-65
2021/11/17 06:44:49;;;;;;;88.28;33.28;;;6.70;99.90;;;;;;5101822;27;20047;-65
2021/11/17 06:47:15;;;;;;;91.70;34.88;;;6.70;99.90;;;;;;5131725;27;20107;-65
2021/11/17 06:49:41;;;;;;;93.25;32.50;;;6.70;99.90;;;;;;5106009;27;20067;-66
2021/11/17 06:52:08;;;;;;;97.10;36.67;;;6.80;99.90;;;;;;5119791;27;20288;-65
2021/11/17 06:54:34;;;;;;;93.85;36.88;;;6.70;99.90;;;;;;5120905;27;20051;-65
2021/11/17 06:57:00;;;;;;;94.30;37.53;;;6.80;99.90;;;;;;5109386;28;20047;-66
2021/11/17 06:59:25;;;;;;;96.85;37.33;;;6.70;99.90;;;;;;5112672;27;20162;-66
2021/11/17 07:01:51;;;;;;;94.82;37.28;;;6.80;99.90;;;;;;5133049;27;20035;-65
2021/11/17 07:04:16;;;;;;;93.38;38.55;;;6.80;99.90;;;;;;5086011;27;20121;-65
2021/11/17 07:06:42;;;;;;;97.35;34.63;;;6.80;99.90;;;;;;5112141;28;20058;-65
2021/11/17 07:09:09;;;;;;;79.03;30.27;;;6.80;99.90;;;;;;5124527;27;20059;-64
2021/11/17 07:11:37;;;;;;;85.70;31.88;;;7.10;99.90;;;;;;5111814;28;20047;-66
2021/11/17 07:14:10;;;;;;;91.60;34.83;;;7.10;99.90;;;;;;5118569;27;20066;-65
2021/11/17 07:16:38;;;;;;;89.55;34.28;;;7.10;99.90;;;;;;5095943;27;20089;-65
2021/11/17 07:19:07;;;;;;;82.80;34.22;;;7.10;99.90;;;;;;5110108;27;20108;-66
2021/11/17 07:21:34;;;;;;;94.15;35.65;;;7.00;99.90;;;;;;5127306;27;20032;-65
2021/11/17 07:23:59;;;;;;;85.43;33.78;;;7.00;99.90;;;;;;5120788;27;20124;-65
2021/11/17 07:26:26;;;;;;;89.40;35.70;;;7.00;99.90;;;;;;5137142;27;20171;-65
2021/11/17 07:28:52;;;;;;;86.68;36.92;;;6.90;99.90;;;;;;5121517;27;20093;-66
2021/11/17 07:31:18;;;;;;;83.07;35.35;;;7.00;99.90;;;;;;5126437;27;20040;-69
2021/11/17 07:33:44;;;;;;;85.13;35.53;;;7.00;99.90;;;;;;5117009;27;20466;-65
2021/11/17 07:36:11;;;;;;;89.70;37.60;;;6.90;99.90;;;;;;5092559;27;20042;-66
2021/11/17 07:38:37;;;;;;;85.93;36.20;;;6.90;99.90;;;;;;5099484;28;20089;-66
2021/11/17 07:41:02;;;;;;;90.60;41.05;;;6.90;99.90;;;;;;5121690;27;20058;-66
2021/11/17 07:43:29;;;;;;;92.10;38.60;;;6.90;99.90;;;;;;5094676;28;20225;-66
2021/11/17 07:45:56;;;;;;;96.50;38.15;;;6.90;99.90;;;;;;5125477;27;20035;-66
2021/11/17 07:48:25;;;;;;;96.45;39.80;;;6.90;99.90;;;;;;5121668;27;20122;-66
2021/11/17 07:50:52;;;;;;;93.07;36.65;;;6.90;99.90;;;;;;5117248;27;20044;-66
2021/11/17 07:53:20;;;;;;;89.30;39.75;;;7.10;99.90;;;;;;5106471;27;20052;-67
2021/11/17 07:55:49;;;;;;;93.45;39.97;;;7.00;99.90;;;;;;5112790;27;20043;-66
2021/11/17 07:58:17;;;;;;;90.10;38.17;;;7.00;99.90;;;;;;5126490;27;20199;-66
2021/11/17 08:00:51;;;;;;;91.80;39.00;;;7.10;99.90;;;;;;5130880;27;20058;-66
2021/11/17 08:03:18;;;;;;;94.32;38.40;;;7.10;99.90;;;;;;5096971;27;20035;-66
2021/11/17 08:05:47;;;;;;;92.80;37.60;;;7.00;99.90;;;;;;5109084;28;20043;-65
2021/11/17 08:08:13;;;;;;;102.75;41.20;;;7.00;99.90;;;;;;5118836;27;20042;-65
2021/11/17 08:10:41;;;;;;;94.60;38.58;;;7.00;99.90;;;;;;5133617;27;20055;-65
2021/11/17 08:13:07;;;;;;;92.05;40.15;;;7.10;99.90;;;;;;5103883;27;20061;-66
2021/11/17 08:15:33;;;;;;;104.53;41.13;;;7.10;99.90;;;;;;5109400;27;20051;-66
2021/11/17 08:17:59;;;;;;;100.43;40.15;;;7.00;99.90;;;;;;5136997;27;20757;-65
2021/11/17 08:20:26;;;;;;;99.95;40.75;;;7.10;99.90;;;;;;5105936;27;20060;-65
2021/11/17 08:22:54;;;;;;;97.75;39.47;;;7.10;99.90;;;;;;5134551;27;20207;-65
2021/11/17 08:25:23;;;;;;;88.18;37.65;;;7.10;99.90;;;;;;5101773;28;20086;-66
2021/11/17 08:27:50;;;;;;;91.90;39.65;;;7.20;99.90;;;;;;5093292;28;20074;-65
2021/11/17 08:30:17;;;;;;;89.03;38.63;;;7.20;99.90;;;;;;5091154;28;20040;-66
2021/11/17 08:32:45;;;;;;;102.32;40.25;;;7.10;99.90;;;;;;5116276;28;20088;-65
2021/11/17 08:35:15;;;;;;;100.50;40.17;;;7.10;99.90;;;;;;5099882;28;20051;-64
2021/11/17 08:37:41;;;;;;;103.90;38.75;;;7.20;99.90;;;;;;5115592;28;20071;-66
2021/11/17 08:40:11;;;;;;;103.15;40.17;;;7.20;99.90;;;;;;5090181;28;20048;-64
2021/11/17 08:42:37;;;;;;;108.03;38.25;;;7.20;99.90;;;;;;5108429;28;20072;-67
2021/11/17 08:45:05;;;;;;;100.15;39.28;;;7.20;99.90;;;;;;5102572;28;20048;-64
2021/11/17 08:47:31;;;;;;;101.47;39.55;;;7.30;99.90;;;;;;5128638;28;20078;-65
2021/11/17 08:49:56;;;;;;;94.65;38.28;;;7.30;99.90;;;;;;5104914;28;20040;-65
2021/11/17 08:52:23;;;;;;;99.03;40.50;;;7.40;99.90;;;;;;5126051;28;20065;-64
2021/11/17 08:54:49;;;;;;;99.50;39.03;;;7.40;99.90;;;;;;5120978;28;20058;-64
2021/11/17 08:57:16;;;;;;;107.25;40.85;;;7.50;99.90;;;;;;5134689;28;20031;-64
2021/11/17 08:59:45;;;;;;;103.72;43.10;;;7.40;99.90;;;;;;5123542;27;20040;-64
2021/11/17 09:02:11;;;;;;;103.28;40.67;;;7.50;99.90;;;;;;5116805;27;20052;-64
2021/11/17 09:04:37;;;;;;;100.63;41.22;;;7.50;99.90;;;;;;5099480;27;20048;-64
2021/11/17 09:07:03;;;;;;;97.35;40.65;;;7.60;99.90;;;;;;5135519;27;20039;-64
2021/11/17 09:09:29;;;;;;;102.90;37.90;;;7.50;99.90;;;;;;5129350;27;20045;-65
2021/11/17 09:11:55;;;;;;;106.13;40.53;;;7.50;99.90;;;;;;5103420;27;20063;-65
2021/11/17 09:14:21;;;;;;;99.75;40.53;;;7.50;99.90;;;;;;5123833;27;20074;-65
2021/11/17 09:16:47;;;;;;;107.10;39.38;;;7.50;99.90;;;;;;5107819;27;20112;-65
2021/11/17 09:19:13;;;;;;;102.68;40.90;;;7.50;99.90;;;;;;5129324;27;20054;-65
2021/11/17 09:21:41;;;;;;;113.50;41.72;;;7.50;99.90;;;;;;5137082;27;20039;-65
2021/11/17 09:24:10;;;;;;;102.88;39.15;;;7.60;99.90;;;;;;5103449;27;20036;-65
2021/11/17 09:26:37;;;;;;;106.97;39.60;;;7.60;99.90;;;;;;5138704;27;20059;-65
2021/11/17 09:29:04;;;;;;;109.60;40.65;;;7.60;99.90;;;;;;5121041;27;20073;-66
2021/11/17 09:31:31;;;;;;;119.18;42.38;;;7.60;99.90;;;;;;5122125;27;20047;-65
2021/11/17 09:33:58;;;;;;;107.53;39.85;;;7.60;99.90;;;;;;5103653;27;20523;-65
2021/11/17 09:36:27;;;;;;;121.30;41.00;;;7.60;99.90;;;;;;5137475;27;20075;-65
2021/11/17 09:38:55;;;;;;;109.43;41.90;;;7.60;99.90;;;;;;5119380;27;20051;-64
2021/11/17 09:41:43;;;;;;;109.93;40.55;;;7.70;99.90;;;;;;5091311;27;20067;-65
2021/11/17 09:44:28;;;;;;;110.75;41.30;;;7.70;99.90;;;;;;5107137;27;20051;-65
2021/11/17 09:46:55;;;;;;;123.68;40.05;;;7.70;99.90;;;;;;5128974;27;20456;-65
2021/11/17 09:49:30;;;;;;;107.57;40.35;;;7.80;99.90;;;;;;5126198;27;20491;-65
2021/11/17 09:51:59;;;;;;;107.00;38.30;;;7.80;99.90;;;;;;5111969;28;20043;-65
2021/11/17 09:54:27;;;;;;;101.00;39.20;;;7.90;99.90;;;;;;5110123;27;20481;-65
2021/11/17 09:57:06;;;;;;;105.18;37.75;;;7.90;99.90;;;;;;5128778;27;20047;-65
2021/11/17 09:59:54;;;;;;;106.88;38.42;;;7.90;99.90;;;;;;5081358;28;20138;-65
2021/11/17 10:02:41;;;;;;;117.57;39.00;;;7.90;99.90;;;;;;5099617;27;20128;-65
2021/11/17 10:05:15;;;;;;;111.78;38.33;;;8.00;99.90;;;;;;5070795;28;20161;-65
2021/11/17 10:13:55;;;;;;;97.53;31.08;;;8.00;99.90;;;;;;5117806;27;20095;-65
2021/11/17 10:16:22;;;;;;;73.18;29.80;;;8.00;99.90;;;;;;5138655;27;20044;-65
2021/11/17 10:19:14;;;;;;;87.10;29.98;;;8.10;99.90;;;;;;5127580;27;20407;-65
2021/11/17 10:21:41;;;;;;;83.40;29.83;;;8.20;99.90;;;;;;5110525;27;20050;-65
2021/11/17 10:24:18;;;;;;;74.70;29.73;;;8.20;99.90;;;;;;5118758;27;20069;-66
2021/11/17 10:26:49;;;;;;;76.20;28.80;;;8.30;99.90;;;;;;5124813;27;20107;-65
2021/11/17 10:29:26;;;;;;;72.05;27.98;;;8.40;99.90;;;;;;5113842;27;20072;-65
2021/11/17 10:32:04;;;;;;;61.50;27.20;;;8.40;99.90;;;;;;5132299;27;20049;-65
2021/11/17 10:34:38;;;;;;;65.50;25.67;;;8.40;99.90;;;;;;5126737;27;20058;-65
2021/11/17 10:37:12;;;;;;;66.40;28.00;;;8.50;99.90;;;;;;5110422;27;20556;-65
2021/11/17 10:39:38;;;;;;;62.53;26.90;;;8.50;99.90;;;;;;5097170;27;20051;-65
2021/11/17 10:42:08;;;;;;;61.35;26.42;;;8.60;99.90;;;;;;5137132;27;20272;-65
2021/11/17 10:44:37;;;;;;;64.90;28.30;;;8.60;99.90;;;;;;5124636;27;20051;-65
2021/11/17 10:47:17;;;;;;;71.97;27.80;;;8.70;99.90;;;;;;5127682;27;20047;-65
2021/11/17 10:49:45;;;;;;;;;;;8.70;99.90;;;;;;5127232;27;20085;-65
2021/11/17 10:52:12;;;;;;;68.68;27.08;;;8.70;99.90;;;;;;5108943;27;19940;-65
2021/11/17 10:54:46;;;;;;;58.83;27.13;;;8.70;99.90;;;;;;5106136;27;20047;-65
2021/11/17 10:57:19;;;;;;;63.60;25.52;;;8.80;99.90;;;;;;5109049;28;20497;-65
2021/11/17 10:59:44;;;;;;;61.80;25.30;;;8.80;99.90;;;;;;5104073;27;20047;-65
2021/11/17 11:02:11;;;;;;;60.00;24.80;;;8.80;99.90;;;;;;5114584;27;20058;-65
2021/11/17 11:04:47;;;;;;;65.10;26.38;;;8.80;99.90;;;;;;5108653;27;20043;-65
2021/11/17 11:07:15;;;;;;;69.28;25.92;;;8.80;99.90;;;;;;5114295;27;20024;-65
2021/11/17 11:09:52;;;;;;;61.35;26.85;;;8.80;99.90;;;;;;5127700;27;20055;-65
2021/11/17 11:12:21;;;;;;;60.53;25.45;;;8.90;99.90;;;;;;5135191;27;20557;-65
2021/11/17 11:14:53;;;;;;;57.40;24.77;;;9.00;99.90;;;;;;5112823;27;20256;-65
2021/11/17 11:17:47;;;;;;;61.00;27.40;;;9.20;99.90;;;;;;5132963;27;20184;-65
2021/11/17 11:20:16;;;;;;;56.55;25.50;;;9.30;99.90;;;;;;5121979;27;20051;-65
2021/11/17 11:23:12;;;;;;;63.10;25.73;;;9.40;99.90;;;;;;5137003;27;20047;-67
2021/11/17 11:25:53;;;;;;;48.80;23.55;;;9.60;99.90;;;;;;5109243;27;20050;-66
2021/11/17 11:28:24;;;;;;;50.42;21.70;;;9.70;99.90;;;;;;5112326;27;20274;-65
2021/11/17 11:31:12;;;;;;;50.22;21.90;;;9.80;99.90;;;;;;5096989;27;20077;-64
2021/11/17 11:33:48;;;;;;;45.03;20.42;;;9.80;99.90;;;;;;5138831;27;20060;-67
2021/11/17 11:36:14;;;;;;;47.45;20.63;;;10.00;99.90;;;;;;5117471;27;20045;-67
2021/11/17 11:38:48;;;;;;;45.47;19.75;;;10.10;99.90;;;;;;5133994;27;20149;-66
2021/11/17 11:41:43;;;;;;;39.10;19.13;;;10.10;99.90;;;;;;5125016;27;20446;-67
2021/11/17 11:44:26;;;;;;;35.80;18.10;;;10.20;99.90;;;;;;5123904;27;20090;-68
2021/11/17 11:46:58;;;;;;;36.70;17.40;;;10.30;99.90;;;;;;5136829;27;20099;-66
2021/11/17 11:49:53;;;;;;;36.83;18.33;;;10.40;99.90;;;;;;5126989;27;20047;-66
2021/11/17 11:52:27;;;;;;;43.90;17.75;;;10.50;99.90;;;;;;5138173;27;20043;-66
2021/11/17 11:54:55;;;;;;;38.85;16.45;;;10.60;99.90;;;;;;5120058;27;20051;-65
2021/11/17 11:57:52;;;;;;;36.42;16.63;;;10.60;99.90;;;;;;5135656;27;20164;-66
2021/11/17 12:00:20;;;;;;;32.83;14.63;;;10.70;99.90;;;;;;5127281;27;20062;-65
2021/11/17 12:02:58;;;;;;;33.55;14.90;;;10.70;99.90;;;;;;5133725;27;20047;-66
2021/11/17 12:05:40;;;;;;;30.23;12.93;;;10.80;99.90;;;;;;5114117;27;20094;-65
2021/11/17 12:08:21;;;;;;;38.17;14.95;;;10.90;99.90;;;;;;5135005;27;20077;-66
2021/11/17 12:11:15;;;;;;;32.83;12.52;;;11.00;99.90;;;;;;5121137;27;20142;-65
2021/11/17 12:14:08;;;;;;;28.50;11.30;;;11.10;99.90;;;;;;5117529;28;20080;-66
2021/11/17 12:16:44;;;;;;;29.23;11.60;;;11.20;99.90;;;;;;5070659;28;20065;-66
2021/11/17 12:19:25;;;;;;;29.48;10.25;;;11.30;99.90;;;;;;5126305;27;20051;-67
2021/11/17 12:21:51;;;;;;;24.80;8.40;;;11.40;99.90;;;;;;5113451;28;20043;-65
2021/11/17 12:24:20;;;;;;;25.77;7.68;;;11.50;99.90;;;;;;5109290;28;20051;-65
2021/11/17 12:26:56;;;;;;;20.33;6.17;;;11.60;99.90;;;;;;5102617;28;20109;-64
2021/11/17 12:29:30;;;;;;;23.55;5.93;;;11.50;99.90;;;;;;5098631;28;20042;-65
2021/11/17 12:32:15;;;;;;;17.23;4.88;;;11.50;99.90;;;;;;5117599;28;20074;-65
2021/11/17 12:34:52;;;;;;;15.93;4.30;;;11.60;99.90;;;;;;5120724;27;20097;-65
2021/11/17 12:37:26;;;;;;;23.85;5.15;;;11.70;99.90;;;;;;5093666;28;20040;-65
2021/11/17 12:40:04;;;;;;;17.63;3.47;;;11.80;99.90;;;;;;5117895;28;20139;-65
2021/11/17 12:42:37;;;;;;;20.92;4.03;;;11.80;99.90;;;;;;5110878;28;20111;-65
2021/11/17 12:45:28;;;;;;;16.17;4.03;;;11.80;99.90;;;;;;5105634;28;20042;-65
2021/11/17 12:48:11;;;;;;;16.88;3.35;;;11.80;99.90;;;;;;5120179;28;20102;-65
2021/11/17 12:50:45;;;;;;;19.88;3.28;;;11.80;99.90;;;;;;5094970;28;20059;-65
2021/11/17 12:53:22;;;;;;;20.80;4.00;;;11.80;99.90;;;;;;5118401;28;20112;-65
2021/11/17 12:56:03;;;;;;;18.92;3.72;;;11.90;99.90;;;;;;5099385;28;20043;-65
2021/11/17 12:58:47;;;;;;;18.05;3.30;;;12.00;99.90;;;;;;5113365;28;20047;-65
2021/11/17 13:01:33;;;;;;;15.52;3.42;;;12.10;99.90;;;;;;5106761;28;20096;-65
2021/11/17 13:04:02;;;;;;;12.02;2.75;;;11.90;99.90;;;;;;5119166;28;20047;-65
2021/11/17 13:06:31;;;;;;;15.13;2.60;;;11.90;99.90;;;;;;5109584;28;20055;-65
2021/11/17 13:09:30;;;;;;;14.68;3.05;;;11.80;99.90;;;;;;5134796;28;20118;-65
2021/11/17 13:12:11;;;;;;;16.48;3.83;;;11.60;99.90;;;;;;5086246;28;20039;-65
2021/11/17 13:14:50;;;;;;;13.30;2.30;;;11.60;99.90;;;;;;5117687;28;20430;-65
2021/11/17 13:17:23;;;;;;;12.95;2.95;;;11.60;99.90;;;;;;5119334;28;20035;-65
2021/11/17 13:19:52;;;;;;;13.32;2.85;;;11.60;99.90;;;;;;5106749;28;20044;-65
2021/11/17 13:22:27;;;;;;;13.77;2.80;;;11.50;99.90;;;;;;5118882;28;20046;-65
2021/11/17 13:25:53;;;;;;;12.68;2.90;;;11.50;99.90;;;;;;5113549;27;20047;-65
2021/11/17 13:28:41;;;;;;;10.88;3.15;;;11.40;99.90;;;;;;5034070;28;20085;-65
2021/11/17 13:31:34;;;;;;;9.23;1.67;;;11.40;99.90;;;;;;5013063;28;20060;-64
2021/11/17 13:34:11;;;;;;;12.63;2.15;;;11.30;99.90;;;;;;5024553;28;20061;-65
2021/11/17 13:37:02;;;;;;;13.43;2.78;;;11.30;99.90;;;;;;5005818;28;20137;-64
2021/11/17 13:39:28;;;;;;;12.32;2.63;;;11.20;99.90;;;;;;5019300;28;20081;-64
2021/11/17 13:41:55;;;;;;;11.65;2.78;;;11.20;99.90;;;;;;5018926;28;20045;-64
2021/11/17 13:44:26;;;;;;;12.85;2.85;;;11.20;99.90;;;;;;5022646;28;20101;-65
2021/11/17 13:47:00;;;;;;;10.60;2.63;;;11.20;99.90;;;;;;5022039;28;20057;-64
2021/11/17 13:49:27;;;;;;;10.50;2.30;;;11.20;99.90;;;;;;5024193;28;20052;-65
2021/11/17 13:51:53;;;;;;;13.30;2.40;;;11.20;99.90;;;;;;5002441;28;20159;-65
2021/11/17 13:54:19;;;;;;;12.00;3.00;;;11.10;99.90;;;;;;5021382;28;20054;-65
2021/11/17 13:56:45;;;;;;;10.30;2.67;;;11.10;99.90;;;;;;5029226;28;20114;-64
2021/11/17 13:59:11;;;;;;;16.00;2.35;;;11.10;99.90;;;;;;5089738;27;20067;-64
2021/11/17 14:01:37;;;;;;;11.40;2.35;;;11.10;99.90;;;;;;5097433;27;20090;-65
2021/11/17 14:04:03;;;;;;;17.63;3.05;;;11.10;99.90;;;;;;5101037;27;20048;-65
2021/11/17 14:06:29;;;;;;;9.65;2.30;;;11.10;99.90;;;;;;5116043;27;20058;-65
2021/11/17 14:08:55;;;;;;;10.98;2.55;;;11.10;99.90;;;;;;5120459;27;20047;-65
2021/11/17 14:11:20;;;;;;;14.75;2.88;;;11.10;99.90;;;;;;5118405;27;20116;-65
2021/11/17 14:13:47;;;;;;;14.73;3.03;;;11.10;99.90;;;;;;5140667;27;20071;-65
2021/11/17 14:16:16;;;;;;;13.80;2.67;;;11.10;99.90;;;;;;5123019;27;20039;-65
2021/11/17 14:18:42;;;;;;;14.05;2.42;;;11.10;99.90;;;;;;5121600;27;20193;-67
2021/11/17 14:21:09;;;;;;;13.85;2.50;;;10.90;99.90;;;;;;5104880;28;20378;-65
2021/11/17 14:23:36;;;;;;;16.60;1.88;;;10.90;99.90;;;;;;5139825;27;20047;-65
2021/11/17 14:26:05;;;;;;;7.82;2.03;;;10.70;99.90;;;;;;5130233;27;20047;-65
2021/11/17 14:28:34;;;;;;;10.07;2.55;;;10.60;99.90;;;;;;5141160;27;20064;-66
2021/11/17 14:31:13;;;;;;;16.17;2.72;;;10.50;99.90;;;;;;5122317;27;20073;-65
2021/11/17 14:33:43;;;;;;;9.63;1.95;;;10.30;99.90;;;;;;5105362;27;20047;-66
2021/11/17 14:36:10;;;;;;;10.48;2.15;;;10.20;99.90;;;;;;5097234;28;20083;-66
2021/11/17 14:38:39;;;;;;;12.75;2.45;;;10.10;99.90;;;;;;5133198;27;20039;-66
2021/11/17 14:41:05;;;;;;;9.98;2.28;;;10.00;99.90;;;;;;5110792;27;20070;-66
2021/11/17 14:43:31;;;;;;;7.90;1.95;;;10.00;99.90;;;;;;5124727;27;20077;-66
2021/11/17 14:45:57;;;;;;;10.27;1.83;;;9.90;99.90;;;;;;5106081;27;20111;-66
2021/11/17 14:48:24;;;;;;;11.77;2.50;;;9.90;99.90;;;;;;5104030;27;20043;-66
2021/11/17 14:50:52;;;;;;;16.25;3.38;;;9.90;99.90;;;;;;5091462;28;20048;-66
2021/11/17 14:53:18;;;;;;;16.92;2.50;;;9.90;99.90;;;;;;5110580;27;20082;-66
2021/11/17 14:55:44;;;;;;;9.32;2.03;;;9.80;99.90;;;;;;5108979;27;20069;-66
2021/11/17 14:58:10;;;;;;;10.00;2.75;;;9.70;99.90;;;;;;5138611;27;20031;-66
2021/11/17 15:00:49;;;;;;;8.75;2.25;;;9.60;99.90;;;;;;5129488;27;20099;-67
2021/11/17 15:03:15;;;;;;;10.93;2.25;;;9.50;99.90;;;;;;5140069;27;20051;-65
2021/11/17 15:05:41;;;;;;;10.85;2.58;;;9.40;99.90;;;;;;5120675;27;20214;-65
2021/11/17 15:08:07;;;;;;;13.35;2.15;;;9.30;99.90;;;;;;5133938;27;20538;-66
2021/11/17 15:10:33;;;;;;;10.43;2.35;;;9.30;99.90;;;;;;5103875;28;20043;-66
2021/11/17 15:12:59;;;;;;;11.82;2.28;;;9.20;99.90;;;;;;5109124;27;20047;-65
2021/11/17 15:15:34;;;;;;;14.93;2.25;;;9.20;99.90;;;;;;5112016;27;20075;-65
2021/11/17 15:17:59;;;;;;;12.07;2.67;;;9.10;99.90;;;;;;5119192;27;20092;-66
2021/11/17 15:20:27;;;;;;;9.38;1.73;;;9.10;99.90;;;;;;5120585;27;20138;-65
2021/11/17 15:22:53;;;;;;;12.90;2.47;;;9.00;99.90;;;;;;5099856;28;20104;-66
2021/11/17 15:25:26;;;;;;;14.35;3.30;;;9.00;99.90;;;;;;5110130;27;20146;-65
2021/11/17 15:27:58;;;;;;;9.25;2.33;;;8.90;99.90;;;;;;5108361;28;20107;-66
2021/11/17 15:30:28;;;;;;;10.27;2.42;;;8.80;99.90;;;;;;5101510;28;20355;-66
2021/11/17 15:32:54;;;;;;;;;;;8.80;99.90;;;;;;5105971;28;20055;-65
2021/11/17 15:35:23;;;;;;;13.45;2.60;;;8.60;99.90;;;;;;5120759;27;19927;-65
2021/11/17 15:37:50;;;;;;;11.80;3.10;;;8.60;99.90;;;;;;5109377;27;20051;-65
2021/11/17 15:40:19;;;;;;;13.18;2.40;;;8.50;99.90;;;;;;5109443;27;20058;-65
2021/11/17 15:42:47;;;;;;;10.25;2.15;;;8.40;99.90;;;;;;5108609;27;20050;-65
2021/11/17 15:45:15;;;;;;;11.48;2.45;;;8.40;99.90;;;;;;5104448;27;20099;-65
2021/11/17 15:47:41;;;;;;;9.23;2.00;;;8.40;99.90;;;;;;5113083;27;20057;-65
2021/11/17 15:50:17;;;;;;;9.55;2.22;;;8.30;99.90;;;;;;5124964;27;20055;-65